Time;durP1;ratioP1;P1;durP2;ratioP2;P2;SDS_P1;SDS_P2;PMS_P1;PMS_P2;Temp;Humidity;BMP_temperature;BMP_pressure;BME280_temperature;BME280_humidity;BME280_pressure;Samples;Min_cycle;Max_cycle;Signal;HPM_P1;HPM_P2
2022/11/07 00:01:16;;;;;;;6.83;4.43;;;;;;;11.26;77.19;100382.91;5099046;27;20203;-60
2022/11/07 00:03:43;;;;;;;7.30;3.70;;;;;;;11.33;76.92;100389.28;5098437;27;20207;-61
2022/11/07 00:06:11;;;;;;;9.00;3.70;;;;;;;11.30;77.16;100382.47;5100006;27;20256;-61
2022/11/07 00:08:39;;;;;;;7.33;4.40;;;;;;;11.31;77.31;100388.59;5099563;27;20215;-60
2022/11/07 00:11:07;;;;;;;7.90;4.13;;;;;;;11.31;77.54;100388.59;5098332;27;20285;-60
2022/11/07 00:13:35;;;;;;;7.90;3.50;;;;;;;11.31;77.77;100393.91;5099878;27;20873;-60
2022/11/07 00:16:06;;;;;;;5.57;3.53;;;;;;;11.33;77.71;100391.94;5104261;27;20208;-60
2022/11/07 00:18:35;;;;;;;6.73;3.80;;;;;;;11.29;78.07;100402.03;5103475;27;20748;-59
2022/11/07 00:21:04;;;;;;;5.93;3.63;;;;;;;11.32;78.04;100408.84;5097702;27;20277;-59
2022/11/07 00:23:32;;;;;;;6.87;3.73;;;;;;;11.35;77.98;100405.88;5099560;27;20263;-60
2022/11/07 00:26:01;;;;;;;7.17;3.67;;;;;;;11.34;78.24;100411.38;5106518;27;20262;-60
2022/11/07 00:28:29;;;;;;;5.90;3.70;;;;;;;11.27;78.82;100400.50;5099673;27;20625;-60
2022/11/07 00:30:58;;;;;;;7.10;3.97;;;;;;;11.30;79.00;100409.00;5095334;27;20213;-59
2022/11/07 00:33:26;;;;;;;6.23;3.63;;;;;;;11.32;79.32;100414.16;5103904;27;20716;-59
2022/11/07 00:35:55;;;;;;;7.73;3.77;;;;;;;11.36;79.28;100418.16;5106481;27;20720;-59
2022/11/07 00:38:22;;;;;;;7.53;4.00;;;;;;;11.38;79.52;100408.22;5104307;27;20602;-60
2022/11/07 00:40:57;;;;;;;7.03;3.50;;;;;;;11.40;79.78;100414.22;5105459;27;20214;-60
2022/11/07 00:43:25;;;;;;;7.03;3.60;;;;;;;11.41;80.04;100409.75;5103303;27;20218;-60
2022/11/07 00:45:52;;;;;;;6.20;3.90;;;;;;;11.45;80.59;100413.75;5098480;27;20264;-60
2022/11/07 00:48:20;;;;;;;6.10;3.50;;;;;;;11.43;80.94;100413.94;5109098;27;20291;-60
2022/11/07 00:50:48;;;;;;;8.17;3.93;;;;;;;11.46;81.43;100418.06;5099073;27;20204;-59
2022/11/07 00:53:17;;;;;;;5.73;3.47;;;;;;;11.42;82.04;100416.72;5098308;27;20284;-60
2022/11/07 00:55:45;;;;;;;6.70;3.43;;;;;;;11.46;82.06;100434.84;5096796;27;20578;-60
2022/11/07 00:58:13;;;;;;;4.70;3.20;;;;;;;11.48;82.25;100430.22;5096733;27;20256;-60
2022/11/07 01:00:41;;;;;;;6.20;3.57;;;;;;;11.56;81.80;100435.59;5100183;27;20262;-61
2022/11/07 01:05:58;;;;;;;4.93;3.40;;;;;;;11.57;82.37;100437.25;5096167;27;20265;-61
2022/11/07 01:08:27;;;;;;;5.60;3.43;;;;;;;11.53;82.96;100435.03;5100012;27;20640;-60
2022/11/07 01:10:56;;;;;;;8.90;3.80;;;;;;;11.56;83.03;100430.28;5098233;27;20212;-62
2022/11/07 01:13:24;;;;;;;6.67;3.20;;;;;;;11.54;83.55;100448.16;5097591;28;20249;-59
2022/11/07 01:15:52;;;;;;;5.93;3.60;;;;;;;11.56;83.99;100442.72;5104932;27;20945;-60
2022/11/07 01:18:20;;;;;;;8.57;3.73;;;;;;;11.52;84.42;100444.84;5092217;27;20235;-61
2022/11/07 01:20:48;;;;;;;5.77;3.40;;;;;;;11.50;85.13;100444.19;5096096;27;20218;-61
2022/11/07 01:23:16;;;;;;;5.77;3.50;;;;;;;11.51;85.48;100445.00;5096420;27;20201;-59
2022/11/07 01:25:46;;;;;;;5.73;3.33;;;;;;;11.53;85.48;100451.81;5101272;27;20323;-59
2022/11/07 01:28:14;;;;;;;6.93;3.70;;;;;;;11.52;85.78;100442.19;5095484;28;20213;-58
2022/11/07 01:30:43;;;;;;;11.50;4.00;;;;;;;11.54;86.28;100439.38;5095155;27;20646;-60
2022/11/07 01:33:11;;;;;;;5.70;3.33;;;;;;;11.59;85.73;100439.75;5097196;28;20227;-60
2022/11/07 01:35:40;;;;;;;5.10;3.20;;;;;;;11.53;86.41;100435.88;5091903;27;20277;-59
2022/11/07 01:38:07;;;;;;;8.23;3.60;;;;;;;11.53;86.69;100430.56;5099561;27;20222;-59
2022/11/07 01:41:19;;;;;;;7.97;4.60;;;;;;;11.56;87.06;100437.41;5099370;27;20213;-59
2022/11/07 01:43:46;;;;;;;5.77;3.23;;;;;;;11.61;86.78;100438.59;5096843;27;20790;-59
2022/11/07 01:46:15;;;;;;;6.53;3.53;;;;;;;11.57;87.33;100431.94;5096088;27;20592;-61
2022/11/07 01:48:47;;;;;;;7.03;3.10;;;;;;;11.63;87.21;100435.78;5092224;28;20567;-59
2022/11/07 01:51:16;;;;;;;8.37;3.40;;;;;;;11.63;87.57;100441.09;5090739;27;20309;-59
2022/11/07 01:53:44;;;;;;;7.07;3.50;;;;;;;11.62;87.93;100440.25;5095137;27;20254;-60
2022/11/07 01:56:14;;;;;;;7.10;2.83;;;;;;;11.59;88.57;100443.25;5096377;27;20259;-59
2022/11/07 01:58:45;;;;;;;6.70;2.93;;;;;;;11.64;88.71;100440.94;5091699;27;20205;-59
2022/11/07 02:01:14;;;;;;;6.83;3.57;;;;;;;11.61;89.43;100446.56;5095814;28;20269;-60
2022/11/07 02:03:42;;;;;;;6.47;3.70;;;;;;;11.62;89.49;100444.75;5096148;28;20670;-59
2022/11/07 02:06:17;;;;;;;6.70;3.60;;;;;;;11.64;89.45;100435.63;5094374;28;20232;-60
2022/11/07 02:08:48;;;;;;;4.97;2.90;;;;;;;11.60;89.72;100436.94;5094081;27;20588;-59
2022/11/07 02:11:17;;;;;;;7.27;3.47;;;;;;;11.61;90.08;100433.28;5095944;27;20585;-60
2022/11/07 02:13:46;;;;;;;8.37;3.33;;;;;;;11.63;90.05;100431.31;5095079;28;20323;-60
2022/11/07 02:16:14;;;;;;;6.70;3.17;;;;;;;11.62;90.14;100426.16;5090765;28;20225;-61
2022/11/07 02:18:45;;;;;;;6.07;3.03;;;;;;;11.59;90.34;100419.34;5095885;27;20216;-62
2022/11/07 02:21:22;;;;;;;7.77;2.97;;;;;;;11.53;90.66;100417.28;5097783;27;20201;-59
2022/11/07 02:23:56;;;;;;;6.47;3.20;;;;;;;11.52;90.83;100418.28;5088798;27;20247;-59
2022/11/07 02:26:26;;;;;;;5.10;3.03;;;;;;;11.44;91.40;100415.56;5096399;28;20219;-61
2022/11/07 02:28:56;;;;;;;4.33;2.53;;;;;;;11.47;91.26;100414.44;5093646;28;20232;-59
2022/11/07 02:31:24;;;;;;;6.43;2.93;;;;;;;11.43;91.24;100413.94;5096017;28;20214;-61
2022/11/07 02:33:52;;;;;;;7.07;2.67;;;;;;;11.45;91.29;100422.56;5094834;27;20226;-59
2022/11/07 02:36:23;;;;;;;8.57;3.00;;;;;;;11.42;91.42;100417.56;5093576;27;20251;-60
2022/11/07 02:38:56;;;;;;;8.20;2.97;;;;;;;11.39;91.65;100422.34;5099274;28;20258;-60
2022/11/07 02:41:28;;;;;;;5.60;3.00;;;;;;;11.41;91.26;100420.38;5098119;28;20877;-61
2022/11/07 02:43:59;;;;;;;6.00;3.30;;;;;;;11.44;90.83;100426.19;5103200;28;20626;-60
2022/11/07 02:46:29;;;;;;;5.73;2.87;;;;;;;11.40;91.33;100419.53;5098336;28;20213;-60
2022/11/07 02:48:59;;;;;;;5.17;2.80;;;;;;;11.43;91.15;100413.94;5098865;28;20212;-60
2022/11/07 02:51:27;;;;;;;5.17;2.63;;;;;;;11.43;90.71;100424.56;5091786;28;20265;-61
2022/11/07 02:53:55;;;;;;;5.90;2.60;;;;;;;11.50;90.47;100420.28;5094918;28;20311;-60
2022/11/07 02:56:23;;;;;;;5.70;2.77;;;;;;;11.47;90.40;100417.94;5094330;28;20646;-59
2022/11/07 02:58:52;;;;;;;6.27;3.10;;;;;;;11.52;90.29;100414.81;5102498;27;20211;-61
2022/11/07 03:01:21;;;;;;;6.73;3.50;;;;;;;11.57;89.91;100416.00;5100508;27;20602;-60
2022/11/07 03:03:50;;;;;;;7.70;3.03;;;;;;;11.61;89.66;100421.81;5101266;27;20210;-61
2022/11/07 03:06:21;;;;;;;5.63;2.83;;;;;;;11.61;89.85;100417.34;5097614;27;20216;-59
2022/11/07 03:08:49;;;;;;;6.97;2.90;;;;;;;11.68;89.36;100426.38;5096837;28;20209;-61
2022/11/07 03:11:18;;;;;;;5.17;2.80;;;;;;;11.67;89.54;100427.38;5097699;28;20557;-60
2022/11/07 03:13:47;;;;;;;7.60;3.03;;;;;;;11.68;89.50;100421.06;5095757;28;20329;-61
2022/11/07 03:16:18;;;;;;;6.83;3.23;;;;;;;11.68;90.03;100428.19;5097589;28;20211;-61
2022/11/07 03:18:45;;;;;;;6.97;3.17;;;;;;;11.78;89.46;100430.78;5099747;27;20215;-59
2022/11/07 03:21:13;;;;;;;7.40;3.00;;;;;;;11.72;89.87;100431.38;5093379;27;20212;-61
2022/11/07 03:23:41;;;;;;;6.23;3.10;;;;;;;11.79;89.82;100416.50;5098530;27;20201;-60
2022/11/07 03:26:09;;;;;;;6.70;3.23;;;;;;;11.79;89.58;100429.78;5100399;27;20208;-61
2022/11/07 03:28:36;;;;;;;5.57;3.00;;;;;;;11.79;89.91;100435.09;5102194;27;20210;-61
2022/11/07 03:31:04;;;;;;;8.90;3.50;;;;;;;11.84;89.64;100422.19;5096562;27;20214;-60
2022/11/07 03:33:33;;;;;;;10.57;4.00;;;;;;;11.83;89.68;100431.13;5096989;27;20647;-59
2022/11/07 03:36:01;;;;;;;5.80;3.10;;;;;;;11.84;89.98;100433.66;5097258;27;20680;-60
2022/11/07 03:38:29;;;;;;;7.83;2.97;;;;;;;11.86;89.42;100436.16;5097815;27;20228;-59
2022/11/07 03:40:57;;;;;;;6.07;2.80;;;;;;;11.89;89.35;100425.19;5102727;27;20574;-60
2022/11/07 03:43:24;;;;;;;8.23;3.60;;;;;;;11.95;89.15;100430.72;5097149;28;20206;-60
2022/11/07 03:45:52;;;;;;;10.17;3.20;;;;;;;11.98;88.89;100432.22;5101322;27;20654;-62
2022/11/07 03:48:20;;;;;;;6.50;3.30;;;;;;;12.00;89.00;100427.59;5097188;27;20201;-60
2022/11/07 03:50:49;;;;;;;4.40;2.53;;;;;;;12.03;88.86;100435.25;5101298;27;20206;-60
2022/11/07 03:53:17;;;;;;;8.93;3.27;;;;;;;12.00;89.01;100447.03;5096094;27;20216;-60
2022/11/07 03:55:54;;;;;;;6.63;2.00;;;;;;;12.03;89.01;100443.22;5097894;28;20272;-61
2022/11/07 03:58:22;;;;;;;9.60;2.70;;;;;;;11.97;89.13;100446.50;5100300;27;20207;-60
2022/11/07 04:00:50;;;;;;;7.47;2.83;;;;;;;11.98;89.29;100448.16;5098955;27;20213;-61
2022/11/07 04:03:18;;;;;;;5.53;2.60;;;;;;;11.98;89.16;100448.16;5096245;27;20252;-60
2022/11/07 04:05:45;;;;;;;6.83;2.40;;;;;;;12.00;88.86;100459.47;5096198;27;20209;-60
2022/11/07 04:08:14;;;;;;;6.53;2.40;;;;;;;12.06;88.43;100448.19;5095799;27;20238;-61
2022/11/07 04:10:42;;;;;;;6.13;2.60;;;;;;;12.01;88.90;100467.28;5094468;27;20204;-62
2022/11/07 04:18:52;;;;;;;7.57;2.80;;;;;;;12.03;88.88;100467.97;5094785;27;20247;-60
2022/11/07 04:21:19;;;;;;;7.93;2.43;;;;;;;12.03;88.87;100457.34;5095014;28;20210;-60
2022/11/07 04:23:48;;;;;;;7.13;2.13;;;;;;;11.99;89.18;100458.63;5093128;27;20209;-61
2022/11/07 04:29:02;;;;;;;8.57;2.57;;;;;;;12.03;89.21;100464.47;5099765;27;20203;-60
2022/11/07 04:31:29;;;;;;;6.07;2.40;;;;;;;12.04;89.15;100471.47;5101142;27;20207;-60
2022/11/07 04:33:57;;;;;;;6.43;2.30;;;;;;;12.03;89.22;100462.66;5097736;28;20423;-60
2022/11/07 04:36:24;;;;;;;7.27;2.20;;;;;;;12.00;89.32;100462.13;5102832;27;20234;-60
2022/11/07 04:38:53;;;;;;;9.50;2.43;;;;;;;12.01;89.46;100471.78;5102535;27;20621;-59
2022/11/07 04:41:23;;;;;;;8.10;2.00;;;;;;;11.99;89.81;100473.75;5101331;27;20198;-60
2022/11/07 04:43:51;;;;;;;10.10;2.80;;;;;;;12.02;89.87;100473.44;5098013;27;20650;-61
2022/11/07 04:46:19;;;;;;;6.10;2.33;;;;;;;12.04;89.88;100479.44;5097407;27;20211;-61
2022/11/07 04:48:46;;;;;;;6.33;2.23;;;;;;;12.03;89.97;100464.47;5105127;27;20288;-61
2022/11/07 04:51:16;;;;;;;8.77;2.40;;;;;;;12.04;90.14;100469.66;5098931;27;21067;-62
2022/11/07 04:53:44;;;;;;;9.90;2.93;;;;;;;12.05;90.53;100468.63;5099723;28;20278;-61
2022/11/07 04:56:13;;;;;;;5.67;1.90;;;;;;;12.06;90.36;100472.13;5098748;28;20622;-60
2022/11/07 04:58:41;;;;;;;5.17;2.07;;;;;;;12.06;90.52;100466.81;5098352;28;20222;-60
2022/11/07 05:01:08;;;;;;;12.37;2.57;;;;;;;12.14;90.25;100463.38;5099820;27;20254;-60
2022/11/07 05:03:36;;;;;;;9.40;2.50;;;;;;;12.12;90.10;100460.88;5097895;28;20202;-60
2022/11/07 05:06:11;;;;;;;10.33;3.00;;;;;;;12.09;90.52;100458.53;5100924;27;20201;-60
2022/11/07 05:08:39;;;;;;;4.83;2.13;;;;;;;12.13;90.38;100454.56;5100967;28;20651;-61
2022/11/07 05:11:07;;;;;;;7.70;2.67;;;;;;;12.19;90.17;100458.41;5102326;27;20211;-59
2022/11/07 05:13:36;;;;;;;6.50;2.27;;;;;;;12.19;90.12;100455.75;5099750;27;20232;-59
2022/11/07 05:16:05;;;;;;;10.40;2.40;;;;;;;12.19;90.13;100459.25;5098369;27;20272;-60
2022/11/07 05:18:32;;;;;;;7.10;3.30;;;;;;;12.20;89.88;100460.91;5101009;27;20255;-61
2022/11/07 05:21:00;;;;;;;5.67;2.63;;;;;;;12.22;90.12;100458.94;5099746;27;20213;-61
2022/11/07 05:23:27;;;;;;;6.60;2.03;;;;;;;12.17;90.39;100455.91;5101209;27;20707;-62
2022/11/07 05:25:55;;;;;;;3.60;1.73;;;;;;;12.17;90.64;100453.25;5079128;28;20215;-60
2022/11/07 05:28:25;;;;;;;6.17;1.97;;;;;;;12.19;90.47;100453.09;5078494;28;20207;-60
2022/11/07 05:31:04;;;;;;;4.03;1.97;;;;;;;12.22;90.25;100460.75;5073337;28;20207;-61
2022/11/07 05:33:33;;;;;;;7.00;1.80;;;;;;;12.21;90.35;100459.94;5078786;28;20215;-60
2022/11/07 05:36:09;;;;;;;8.37;2.57;;;;;;;12.27;89.88;100461.94;5081484;28;20573;-61
2022/11/07 05:38:37;;;;;;;7.07;2.30;;;;;;;12.27;89.51;100461.94;5077980;28;20202;-60
2022/11/07 05:41:05;;;;;;;7.70;2.27;;;;;;;12.22;89.89;100466.91;5075023;28;20759;-61
2022/11/07 05:43:32;;;;;;;5.80;2.23;;;;;;;12.25;89.96;100453.28;5076848;28;20213;-60
2022/11/07 05:46:00;;;;;;;7.67;2.50;;;;;;;12.26;89.78;100460.28;5080094;28;20206;-59
2022/11/07 05:48:30;;;;;;;5.97;1.93;;;;;;;12.27;89.65;100461.94;5078895;28;20218;-60
2022/11/07 05:50:58;;;;;;;6.10;2.03;;;;;;;12.20;90.40;100465.41;5080595;28;20210;-59
2022/11/07 05:53:26;;;;;;;8.43;2.07;;;;;;;12.23;90.22;100465.91;5079287;28;20206;-59
2022/11/07 05:55:54;;;;;;;10.30;2.23;;;;;;;12.23;90.10;100465.06;5077505;28;20880;-59
2022/11/07 05:58:22;;;;;;;6.53;2.50;;;;;;;12.26;89.87;100459.44;5075211;28;20218;-61
2022/11/07 06:00:50;;;;;;;7.77;2.47;;;;;;;12.20;90.16;100466.22;5073572;28;20214;-61
2022/11/07 06:03:18;;;;;;;8.13;2.40;;;;;;;12.21;90.35;100465.25;5077099;28;20212;-60
2022/11/07 06:05:48;;;;;;;9.13;2.20;;;;;;;12.24;90.08;100464.06;5078550;28;20571;-60
2022/11/07 06:08:16;;;;;;;9.63;2.60;;;;;;;12.27;89.62;100466.44;5075434;28;20300;-59
2022/11/07 06:10:44;;;;;;;8.23;2.47;;;;;;;12.22;90.39;100458.94;5075759;28;20245;-61
2022/11/07 06:13:14;;;;;;;8.90;2.53;;;;;;;12.28;90.15;100466.28;5081691;28;20232;-59
2022/11/07 06:15:44;;;;;;;5.10;2.07;;;;;;;12.30;89.52;100466.97;5080958;28;20230;-60
2022/11/07 06:18:14;;;;;;;9.77;2.07;;;;;;;12.29;89.86;100467.94;5077061;28;20618;-59
2022/11/07 06:20:42;;;;;;;6.60;2.77;;;;;;;12.28;89.81;100473.41;5079894;28;20260;-59
2022/11/07 06:23:12;;;;;;;9.97;2.60;;;;;;;12.32;89.66;100474.75;5084217;28;20210;-61
2022/11/07 06:25:40;;;;;;;8.30;2.17;;;;;;;12.26;90.27;100470.91;5096902;27;20307;-60
2022/11/07 06:28:10;;;;;;;10.67;2.30;;;;;;;12.30;89.83;100474.94;5101160;27;20206;-60
2022/11/07 06:30:39;;;;;;;9.83;2.40;;;;;;;12.33;89.49;100476.41;5098889;27;20207;-64
2022/11/07 06:33:10;;;;;;;6.17;2.50;;;;;;;12.24;90.12;100478.19;5100940;27;20221;-60
2022/11/07 06:35:37;;;;;;;5.67;2.00;;;;;;;12.32;89.62;100486.22;5102209;27;20290;-61
2022/11/07 06:38:07;;;;;;;9.00;2.00;;;;;;;12.30;89.47;100492.72;5103910;28;20538;-61
2022/11/07 06:40:37;;;;;;;4.63;2.00;;;;;;;12.31;89.50;100492.53;5099547;28;20213;-59
2022/11/07 06:43:06;;;;;;;10.53;2.27;;;;;;;12.28;89.49;100507.97;5099609;28;20206;-60
2022/11/07 06:45:35;;;;;;;5.50;2.13;;;;;;;12.32;89.56;100502.16;5101142;28;20247;-60
2022/11/07 06:48:02;;;;;;;6.00;2.03;;;;;;;12.29;89.33;100507.81;5099948;28;20222;-60
2022/11/07 06:50:30;;;;;;;7.07;2.33;;;;;;;12.27;89.35;100504.47;5096244;28;20883;-61
2022/11/07 06:53:01;;;;;;;8.50;2.53;;;;;;;12.30;89.48;100509.50;5096479;28;20659;-60
2022/11/07 06:55:29;;;;;;;9.97;2.97;;;;;;;12.31;89.02;100510.31;5097748;28;20250;-60
2022/11/07 06:57:59;;;;;;;8.80;2.30;;;;;;;12.32;89.08;100512.81;5094054;28;20203;-61
2022/11/07 07:00:27;;;;;;;7.80;2.73;;;;;;;12.38;88.72;100506.03;5093954;28;20210;-60
2022/11/07 07:02:55;;;;;;;6.67;2.20;;;;;;;12.46;87.90;100507.91;5099939;28;20246;-61
2022/11/07 07:05:25;;;;;;;8.60;2.67;;;;;;;12.46;87.88;100503.41;5103867;28;20219;-62
2022/11/07 07:07:54;;;;;;;10.47;2.27;;;;;;;12.47;87.93;100512.22;5100252;28;20217;-62
2022/11/07 07:10:23;;;;;;;11.10;2.20;;;;;;;12.48;87.79;100516.56;5099135;28;20203;-62
2022/11/07 07:12:51;;;;;;;8.57;2.30;;;;;;;12.52;86.97;100518.72;5098236;28;20227;-62
2022/11/07 07:15:20;;;;;;;6.50;2.30;;;;;;;12.49;87.69;100519.03;5098308;28;20231;-63
2022/11/07 07:17:48;;;;;;;12.13;2.37;;;;;;;12.51;87.46;100521.53;5103262;28;20587;-62
2022/11/07 07:20:16;;;;;;;9.50;2.40;;;;;;;12.57;87.00;100520.94;5101440;28;20255;-63
2022/11/07 07:22:44;;;;;;;11.93;2.50;;;;;;;12.58;86.93;100525.22;5101347;28;21667;-62
2022/11/07 07:25:12;;;;;;;8.83;2.33;;;;;;;12.58;87.06;100528.72;5099436;28;20242;-62
2022/11/07 07:27:39;;;;;;;8.70;2.93;;;;;;;12.63;86.69;100531.75;5103889;28;20807;-63
2022/11/07 07:30:09;;;;;;;7.47;2.73;;;;;;;12.67;86.74;100521.59;5100888;28;20297;-62
2022/11/07 07:32:38;;;;;;;6.60;2.47;;;;;;;12.76;86.58;100532.13;5102818;28;20202;-63
2022/11/07 07:35:07;;;;;;;10.63;2.07;;;;;;;12.78;86.27;100540.78;5100055;28;20697;-62
2022/11/07 07:37:34;;;;;;;11.17;2.00;;;;;;;12.85;85.71;100546.28;5096049;28;20225;-62
2022/11/07 07:40:02;;;;;;;6.43;1.87;;;;;;;12.86;85.56;100542.63;5100975;28;20241;-62
2022/11/07 07:42:30;;;;;;;8.33;2.70;;;;;;;12.91;85.04;100545.66;5103351;28;20214;-62
2022/11/07 07:44:57;;;;;;;10.30;2.97;;;;;;;12.94;84.87;100545.31;5101719;27;20206;-62
2022/11/07 07:47:25;;;;;;;10.17;3.13;;;;;;;13.01;84.30;100543.72;5103939;27;20213;-62
2022/11/07 07:49:54;;;;;;;8.53;2.57;;;;;;;13.03;84.28;100539.03;5103122;27;20895;-62
2022/11/07 07:52:21;;;;;;;9.67;2.27;;;;;;;13.12;83.71;100535.41;5098950;27;20259;-62
2022/11/07 07:54:49;;;;;;;8.50;2.90;;;;;;;13.16;83.44;100549.25;5096383;27;22323;-62
2022/11/07 07:57:17;;;;;;;5.80;2.60;;;;;;;13.29;82.45;100543.44;5104083;27;20233;-63
2022/11/07 07:59:44;;;;;;;7.90;2.43;;;;;;;13.36;81.78;100542.66;5100114;27;20214;-62
2022/11/07 08:02:12;;;;;;;10.03;2.27;;;;;;;13.36;81.89;100544.47;5100319;27;20215;-63
2022/11/07 08:04:41;;;;;;;7.57;2.73;;;;;;;13.40;81.30;100540.47;5100121;27;20221;-62
2022/11/07 08:07:10;;;;;;;7.73;2.47;;;;;;;13.39;81.45;100534.31;5103675;27;20209;-62
2022/11/07 08:09:38;;;;;;;9.17;1.77;;;;;;;13.43;81.01;100540.16;5099045;27;20219;-62
2022/11/07 08:12:08;;;;;;;7.50;1.97;;;;;;;13.37;81.46;100546.16;5095326;27;20251;-62
2022/11/07 08:14:35;;;;;;;8.97;2.20;;;;;;;13.42;81.29;100543.81;5095992;27;20230;-62
2022/11/07 08:17:03;;;;;;;6.37;2.43;;;;;;;13.40;81.46;100543.13;5100728;27;20233;-62
2022/11/07 08:19:31;;;;;;;10.37;3.23;;;;;;;13.36;82.03;100545.31;5099110;27;20210;-63
2022/11/07 08:22:02;;;;;;;10.67;2.10;;;;;;;13.40;82.03;100540.47;5096745;27;20211;-62
2022/11/07 08:24:31;;;;;;;10.93;2.67;;;;;;;13.36;82.93;100544.47;5097982;27;20231;-62
2022/11/07 08:26:58;;;;;;;10.40;2.17;;;;;;;13.38;83.01;100548.63;5101226;27;20203;-63
2022/11/07 08:29:26;;;;;;;8.17;2.40;;;;;;;13.47;83.15;100539.66;5098214;27;20482;-63
2022/11/07 08:31:54;;;;;;;10.90;2.43;;;;;;;13.65;81.74;100538.66;5095005;27;20219;-63
2022/11/07 08:34:21;;;;;;;13.53;3.47;;;;;;;13.77;80.99;100548.00;5096267;27;20210;-63
2022/11/07 08:36:49;;;;;;;10.43;2.97;;;;;;;13.84;80.48;100551.66;5096899;27;20229;-62
2022/11/07 08:39:16;;;;;;;8.07;2.90;;;;;;;13.87;80.24;100557.50;5096016;27;20265;-62
2022/11/07 08:41:45;;;;;;;8.73;2.30;;;;;;;13.93;79.85;100555.97;5093930;27;20253;-62
2022/11/07 08:44:13;;;;;;;8.67;2.83;;;;;;;13.88;79.87;100561.84;5089812;27;20206;-61
2022/11/07 08:46:41;;;;;;;8.27;1.90;;;;;;;14.01;79.01;100560.47;5099370;27;20229;-62
2022/11/07 08:49:08;;;;;;;10.07;2.37;;;;;;;14.00;78.92;100561.47;5103436;27;20302;-62
2022/11/07 08:51:36;;;;;;;10.60;2.03;;;;;;;14.03;78.35;100564.66;5103886;27;20207;-61
2022/11/07 08:54:04;;;;;;;9.90;2.77;;;;;;;14.02;78.55;100560.31;5102300;27;20205;-62
2022/11/07 08:56:33;;;;;;;13.07;2.30;;;;;;;14.03;77.89;100558.47;5102201;27;20213;-62
2022/11/07 08:59:02;;;;;;;9.70;2.60;;;;;;;14.09;77.53;100560.47;5101895;27;20216;-62
2022/11/07 09:01:29;;;;;;;12.20;2.37;;;;;;;14.05;77.49;100559.16;5096898;27;20276;-62
2022/11/07 09:03:57;;;;;;;7.40;1.93;;;;;;;14.00;78.05;100569.47;5100157;27;20205;-62
2022/11/07 09:06:25;;;;;;;6.03;1.90;;;;;;;14.03;77.62;100566.47;5103577;27;20320;-63
2022/11/07 09:08:53;;;;;;;14.23;3.80;;;;;;;14.09;77.82;100573.78;5106845;27;20221;-62
2022/11/07 09:11:20;;;;;;;14.17;5.17;;;;;;;14.13;77.57;100570.66;5102676;27;20205;-65
2022/11/07 09:13:48;;;;;;;13.07;3.87;;;;;;;14.18;77.54;100572.78;5097720;27;20252;-62
2022/11/07 09:16:17;;;;;;;10.57;2.97;;;;;;;14.21;77.11;100567.97;5103166;27;20699;-63
2022/11/07 09:18:47;;;;;;;7.17;1.80;;;;;;;14.16;77.43;100575.63;5099764;27;20237;-63
2022/11/07 09:21:15;;;;;;;10.77;2.43;;;;;;;14.09;78.02;100573.78;5104012;27;20243;-63
2022/11/07 09:23:49;;;;;;;11.30;2.03;;;;;;;14.09;77.95;100574.63;5103321;27;20209;-63
2022/11/07 09:26:17;;;;;;;9.90;2.73;;;;;;;14.14;78.28;100571.47;5101217;27;20208;-63
2022/11/07 09:28:44;;;;;;;10.63;2.37;;;;;;;14.17;78.04;100571.13;5099957;27;20546;-62
2022/11/07 09:31:21;;;;;;;12.07;3.00;;;;;;;14.29;77.81;100569.78;5094035;27;20201;-62
2022/11/07 09:33:49;;;;;;;11.57;2.87;;;;;;;14.24;78.19;100570.31;5101218;27;20221;-63
2022/11/07 09:36:16;;;;;;;8.70;1.87;;;;;;;14.34;78.11;100564.75;5106954;28;20295;-62
2022/11/07 09:38:44;;;;;;;13.03;2.10;;;;;;;14.39;77.94;100570.47;5095882;27;20713;-63
2022/11/07 09:41:22;;;;;;;8.63;1.80;;;;;;;14.38;78.28;100573.25;5102191;27;20262;-63
2022/11/07 09:44:11;;;;;;;7.90;1.97;;;;;;;14.33;78.60;100576.44;5099041;27;20209;-63
2022/11/07 09:46:55;;;;;;;13.60;2.17;;;;;;;14.37;78.45;100577.75;5095690;28;20195;-64
2022/11/07 09:49:28;;;;;;;8.53;1.83;;;;;;;14.36;78.81;100576.09;5101438;27;20210;-62
2022/11/07 09:52:02;;;;;;;6.37;1.80;;;;;;;14.41;78.71;100578.31;5099555;27;20198;-61
2022/11/07 09:54:33;;;;;;;5.23;1.50;;;;;;;14.34;79.04;100582.63;5109683;27;20279;-63
2022/11/07 09:57:02;;;;;;;6.67;1.97;;;;;;;14.31;79.37;100578.44;5101653;27;20210;-63
2022/11/07 09:59:36;;;;;;;9.73;2.33;;;;;;;14.36;79.05;100578.75;5103710;27;20705;-63
2022/11/07 10:02:14;;;;;;;13.37;2.50;;;;;;;14.44;78.60;100576.09;5100315;27;20214;-62
2022/11/07 10:10:31;;;;;;;7.20;2.47;;;;;;;14.40;78.97;100582.81;4988374;22;20244;-62
2022/11/07 10:13:16;;;;;;;10.90;2.53;;;;;;;14.52;78.89;100593.94;5006914;28;20242;-62
2022/11/07 10:15:54;;;;;;;13.03;3.23;;;;;;;14.52;78.88;100592.09;5009421;28;20245;-62
2022/11/07 10:18:34;;;;;;;13.70;2.70;;;;;;;14.55;79.32;100601.59;5017685;28;20318;-63
2022/11/07 10:21:09;;;;;;;8.20;2.27;;;;;;;14.56;79.01;100597.94;5013048;28;20203;-64
2022/11/07 10:24:09;;;;;;;13.70;3.13;;;;;;;14.59;79.23;100598.44;5011241;28;20330;-62
2022/11/07 10:26:42;;;;;;;12.00;3.37;;;;;;;14.78;78.93;100591.84;5008429;28;20204;-62
2022/11/07 10:29:13;;;;;;;10.13;2.70;;;;;;;14.99;77.31;100596.63;5013611;28;20209;-63
2022/11/07 10:31:47;;;;;;;10.37;2.73;;;;;;;15.11;76.73;100587.22;5014628;28;20255;-61
2022/11/07 10:34:23;;;;;;;11.33;2.63;;;;;;;15.31;75.97;100584.91;5005740;28;20267;-62
2022/11/07 10:36:51;;;;;;;10.87;2.90;;;;;;;15.51;74.65;100598.69;5015044;28;20204;-62
2022/11/07 10:39:19;;;;;;;8.93;1.97;;;;;;;15.38;73.81;100608.13;5008704;28;20232;-62
2022/11/07 10:41:56;;;;;;;6.73;1.90;;;;;;;15.38;74.21;100602.78;5014203;28;20205;-61
2022/11/07 10:44:26;;;;;;;7.07;2.33;;;;;;;15.27;74.93;100599.66;5013809;28;20243;-64
2022/11/07 10:46:54;;;;;;;7.03;1.90;;;;;;;15.29;75.12;100600.31;5009942;28;20570;-63
2022/11/07 10:49:25;;;;;;;11.47;2.43;;;;;;;15.18;75.50;100603.38;5016034;28;20208;-63
2022/11/07 10:51:54;;;;;;;10.37;2.03;;;;;;;15.18;75.82;100606.88;5014954;28;20221;-63
2022/11/07 10:54:27;;;;;;;7.87;1.70;;;;;;;15.28;75.56;100593.31;5017710;28;20211;-63
2022/11/07 10:57:03;;;;;;;10.93;2.50;;;;;;;15.17;74.80;100586.50;5017811;28;20209;-64
2022/11/07 10:59:33;;;;;;;11.17;2.60;;;;;;;15.16;75.49;100592.88;5016905;28;20802;-62
2022/11/07 11:02:18;;;;;;;6.77;2.20;;;;;;;15.18;75.58;100598.88;5015809;28;20205;-64
2022/11/07 11:04:50;;;;;;;7.27;1.50;;;;;;;15.25;75.56;100596.31;5016023;28;22064;-64
2022/11/07 11:07:18;;;;;;;5.27;1.70;;;;;;;15.34;75.20;100590.75;5016081;28;20437;-62
2022/11/07 11:09:55;;;;;;;8.00;2.23;;;;;;;15.38;75.28;100584.06;5007184;28;20255;-62
2022/11/07 11:12:26;;;;;;;7.03;1.60;;;;;;;15.39;74.98;100596.41;5013830;28;20217;-62
2022/11/07 11:15:11;;;;;;;11.33;2.03;;;;;;;15.33;76.05;100601.63;5009224;28;20204;-65
2022/11/07 11:17:39;;;;;;;10.37;2.40;;;;;;;15.38;74.96;100589.41;5010543;28;20216;-63
2022/11/07 11:20:33;;;;;;;13.00;2.53;;;;;;;15.39;75.36;100579.56;5012600;28;20255;-62
2022/11/07 11:23:03;;;;;;;7.23;1.60;;;;;;;15.29;75.83;100582.47;5012746;28;20213;-62
2022/11/07 11:25:31;;;;;;;7.80;1.77;;;;;;;15.34;75.65;100580.06;5009797;28;20627;-62
2022/11/07 11:28:04;;;;;;;9.77;2.20;;;;;;;15.38;75.96;100580.56;5005766;28;20205;-63
2022/11/07 11:30:34;;;;;;;10.63;1.93;;;;;;;15.37;76.41;100571.72;5010929;28;20222;-63
2022/11/07 11:33:06;;;;;;;7.63;1.80;;;;;;;15.36;76.16;100564.72;5008780;28;20268;-64
2022/11/07 11:35:40;;;;;;;10.57;2.40;;;;;;;15.48;75.79;100566.97;5007117;28;20605;-63
2022/11/07 11:38:17;;;;;;;8.37;2.17;;;;;;;15.56;75.62;100561.59;5008237;28;20228;-62
2022/11/07 11:40:49;;;;;;;19.40;3.57;;;;;;;15.58;75.57;100554.22;5010350;28;20217;-63
2022/11/07 11:43:21;;;;;;;11.07;2.67;;;;;;;15.64;75.10;100550.84;5012848;28;20603;-61
2022/11/07 11:46:03;;;;;;;7.33;2.13;;;;;;;15.85;73.80;100551.00;5012470;28;20625;-61
2022/11/07 11:48:38;;;;;;;7.33;1.93;;;;;;;15.90;73.62;100551.31;5011288;28;20541;-63
2022/11/07 11:51:16;;;;;;;6.90;1.43;;;;;;;16.01;73.26;100553.53;5010973;28;20555;-61
2022/11/07 11:53:43;;;;;;;9.87;1.97;;;;;;;16.03;73.17;100548.84;5009547;28;20205;-62